Time;durP1;ratioP1;P1;durP2;ratioP2;P2;SDS_P1;SDS_P2;PMS_P1;PMS_P2;Temp;Humidity;BMP_temperature;BMP_pressure;BME280_temperature;BME280_humidity;BME280_pressure;Samples;Min_cycle;Max_cycle;Signal;HPM_P1;HPM_P2
2023/11/29 04:02:43;;;;;;;1999.90;999.90;;;;;;;;;;5026909;23;20070;-66
2023/11/29 04:05:09;;;;;;;1999.90;999.90;;;;;;;;;;4974696;28;20035;-66
2023/11/29 04:07:35;;;;;;;1999.90;999.90;;;;;;;;;;4973930;28;20459;-64
2023/11/29 04:10:01;;;;;;;1999.90;999.90;;;;;;;;;;4978117;28;20039;-65
2023/11/29 04:12:27;;;;;;;1999.90;999.90;;;;;;;;;;4980616;28;20022;-65
2023/11/29 04:14:53;;;;;;;1999.90;999.90;;;;;;;;;;4984080;28;20014;-65
2023/11/29 04:17:19;;;;;;;1999.90;999.90;;;;;;;;;;4981750;28;20033;-65
2023/11/29 04:19:45;;;;;;;1999.90;999.90;;;;;;;;;;4982927;28;20483;-65
2023/11/29 04:22:11;;;;;;;1999.90;999.90;;;;;;;;;;4982609;28;20029;-69
2023/11/29 04:24:38;;;;;;;1999.90;999.90;;;;;;;;;;4956199;28;20042;-65
2023/11/29 04:27:04;;;;;;;1999.90;999.90;;;;;;;;;;4982723;28;20027;-65
2023/11/29 04:29:30;;;;;;;1999.90;999.90;;;;;;;;;;4982853;28;20164;-68
2023/11/29 04:31:56;;;;;;;1999.90;999.90;;;;;;;;;;4983906;28;20390;-66
2023/11/29 04:34:22;;;;;;;1999.90;999.90;;;;;;;;;;4957336;28;20129;-66
2023/11/29 04:36:48;;;;;;;1999.90;999.90;;;;;;;;;;4982568;28;20030;-65
2023/11/29 04:39:14;;;;;;;1999.90;999.90;;;;;;;;;;4983190;28;20052;-66
2023/11/29 04:41:41;;;;;;;1999.90;999.90;;;;;;;;;;4977020;28;20027;-65
2023/11/29 04:44:08;;;;;;;1999.90;999.90;;;;;;;;;;4982847;28;20026;-66
2023/11/29 04:46:35;;;;;;;1999.90;999.90;;;;;;;;;;4983861;28;20967;-67
2023/11/29 04:49:01;;;;;;;1999.90;999.90;;;;;;;;;;4956391;28;20486;-67
2023/11/29 04:51:27;;;;;;;1999.90;999.90;;;;;;;;;;4982924;28;20462;-66
2023/11/29 04:53:54;;;;;;;1999.90;999.90;;;;;;;;;;4983589;28;20153;-65
2023/11/29 04:56:20;;;;;;;1999.90;999.90;;;;;;;;;;4976371;28;20217;-65
2023/11/29 04:58:46;;;;;;;1999.90;999.90;;;;;;;;;;4957681;28;20026;-67
2023/11/29 05:01:12;;;;;;;1999.90;999.90;;;;;;;;;;4982983;28;20105;-65
2023/11/29 05:03:39;;;;;;;1999.90;999.90;;;;;;;;;;4954945;28;20041;-66
2023/11/29 05:06:12;;;;;;;1999.90;999.90;;;;;;;;;;4973255;28;20102;-68
2023/11/29 05:08:38;;;;;;;1999.90;999.90;;;;;;;;;;4972718;28;20518;-66
2023/11/29 05:11:04;;;;;;;1999.90;999.90;;;;;;;;;;4973047;28;20042;-66
2023/11/29 05:13:31;;;;;;;1999.90;999.90;;;;;;;;;;4973193;28;20467;-66
2023/11/29 05:15:57;;;;;;;1999.90;999.90;;;;;;;;;;4972520;28;20073;-67
2023/11/29 05:18:23;;;;;;;1999.90;999.90;;;;;;;;;;4972688;28;20039;-67
2023/11/29 05:20:49;;;;;;;1999.90;999.90;;;;;;;;;;4972886;28;20042;-67
2023/11/29 05:23:15;;;;;;;1999.90;999.90;;;;;;;;;;4972814;28;20480;-68
2023/11/29 05:25:42;;;;;;;1999.90;999.90;;;;;;;;;;4970367;28;20038;-66
2023/11/29 05:28:09;;;;;;;1999.90;999.90;;;;;;;;;;4972628;28;20097;-66
2023/11/29 05:30:35;;;;;;;1999.90;999.90;;;;;;;;;;4972393;28;20588;-66
2023/11/29 05:33:03;;;;;;;1999.90;999.90;;;;;;;;;;4953956;29;20039;-67
2023/11/29 05:35:31;;;;;;;1999.90;999.90;;;;;;;;;;4953790;29;20030;-67
2023/11/29 05:37:57;;;;;;;1999.90;999.90;;;;;;;;;;4953765;29;20038;-67
2023/11/29 05:40:23;;;;;;;1999.90;999.90;;;;;;;;;;4953853;29;20023;-68
2023/11/29 05:42:49;;;;;;;1999.90;999.90;;;;;;;;;;4959975;28;20031;-67
2023/11/29 05:45:15;;;;;;;1999.90;999.90;;;;;;;;;;4972792;28;20374;-68
2023/11/29 05:47:41;;;;;;;1999.90;999.90;;;;;;;;;;4978701;28;20026;-69
2023/11/29 05:50:08;;;;;;;1999.90;999.90;;;;;;;;;;4966877;28;20027;-69
2023/11/29 05:52:34;;;;;;;1999.90;999.90;;;;;;;;;;4969369;28;20166;-68
2023/11/29 05:55:00;;;;;;;1999.90;999.90;;;;;;;;;;4972408;28;20053;-68
2023/11/29 05:57:27;;;;;;;1999.90;999.90;;;;;;;;;;4971868;28;20097;-70
2023/11/29 05:59:55;;;;;;;1999.90;999.90;;;;;;;;;;4980470;28;20034;-68
2023/11/29 06:02:21;;;;;;;1999.90;999.90;;;;;;;;;;4987243;28;20039;-68
2023/11/29 06:04:47;;;;;;;1999.90;999.90;;;;;;;;;;4971849;28;20051;-66
2023/11/29 06:07:14;;;;;;;1999.90;999.90;;;;;;;;;;4980546;28;20811;-66
2023/11/29 06:09:40;;;;;;;1999.90;999.90;;;;;;;;;;4991905;28;20175;-66
2023/11/29 06:12:07;;;;;;;1999.90;999.90;;;;;;;;;;4991944;28;20038;-66
2023/11/29 06:14:34;;;;;;;1999.90;999.90;;;;;;;;;;4991941;28;20065;-66
2023/11/29 06:17:00;;;;;;;1999.90;999.90;;;;;;;;;;4991874;28;20026;-66
2023/11/29 06:19:26;;;;;;;1999.90;999.90;;;;;;;;;;4982909;28;20021;-65
2023/11/29 06:21:54;;;;;;;1999.90;999.90;;;;;;;;;;4979321;28;20070;-66
2023/11/29 06:24:20;;;;;;;1999.90;999.90;;;;;;;;;;4971803;28;20025;-67
2023/11/29 06:26:46;;;;;;;1999.90;999.90;;;;;;;;;;4971670;28;20495;-68
2023/11/29 06:29:12;;;;;;;1999.90;999.90;;;;;;;;;;4971357;28;20027;-66
2023/11/29 06:31:38;;;;;;;1999.90;999.90;;;;;;;;;;4971091;28;20045;-67
2023/11/29 06:34:07;;;;;;;1999.90;999.90;;;;;;;;;;4971320;28;20031;-67
2023/11/29 06:36:36;;;;;;;1999.90;999.90;;;;;;;;;;4968891;28;20022;-67
2023/11/29 06:39:02;;;;;;;1999.90;999.90;;;;;;;;;;4970807;28;20027;-66
2023/11/29 06:41:29;;;;;;;1999.90;999.90;;;;;;;;;;4971186;28;20023;-68
2023/11/29 06:43:55;;;;;;;1999.90;999.90;;;;;;;;;;4971469;28;20035;-66
2023/11/29 06:46:24;;;;;;;1999.90;999.90;;;;;;;;;;4970837;28;20078;-64
2023/11/29 06:48:50;;;;;;;1999.90;999.90;;;;;;;;;;4971421;28;20044;-78
2023/11/29 06:51:16;;;;;;;1999.90;999.90;;;;;;;;;;4971987;28;20043;-63
2023/11/29 06:53:42;;;;;;;1999.90;999.90;;;;;;;;;;4971693;28;20031;-63
2023/11/29 06:56:09;;;;;;;1999.90;999.90;;;;;;;;;;4971915;28;20107;-62
2023/11/29 06:58:37;;;;;;;1999.90;999.90;;;;;;;;;;4971480;28;20098;-64
2023/11/29 07:01:06;;;;;;;1999.90;999.90;;;;;;;;;;4971402;28;20438;-62
2023/11/29 07:03:32;;;;;;;1999.90;999.90;;;;;;;;;;4971403;28;20131;-63
2023/11/29 07:05:58;;;;;;;1999.90;999.90;;;;;;;;;;4972143;28;20375;-74
2023/11/29 07:08:24;;;;;;;1999.90;999.90;;;;;;;;;;4971541;28;20019;-63
2023/11/29 07:10:50;;;;;;;1999.90;999.90;;;;;;;;;;4971738;28;20042;-63
2023/11/29 07:13:16;;;;;;;1999.90;999.90;;;;;;;;;;4971692;28;20023;-64
2023/11/29 07:15:43;;;;;;;1999.90;999.90;;;;;;;;;;4971314;28;20505;-63
2023/11/29 07:18:09;;;;;;;1999.90;999.90;;;;;;;;;;4971713;28;20093;-64
2023/11/29 07:20:36;;;;;;;1999.90;999.90;;;;;;;;;;4971318;28;20428;-67
2023/11/29 07:23:04;;;;;;;1999.90;999.90;;;;;;;;;;4956426;28;20047;-77
2023/11/29 07:25:30;;;;;;;1999.90;999.90;;;;;;;;;;4973379;28;20553;-82
2023/11/29 07:27:57;;;;;;;1999.90;999.90;;;;;;;;;;4954192;28;20054;-76
2023/11/29 07:30:26;;;;;;;1999.90;999.90;;;;;;;;;;4955744;28;20390;-74
2023/11/29 07:32:53;;;;;;;1999.90;999.90;;;;;;;;;;4953694;28;20121;-80
2023/11/29 07:35:19;;;;;;;1999.90;999.90;;;;;;;;;;4973131;28;20298;-82
2023/11/29 07:37:46;;;;;;;1999.90;999.90;;;;;;;;;;4972535;28;20031;-70
2023/11/29 07:40:12;;;;;;;1999.90;999.90;;;;;;;;;;4954547;28;20082;-80
2023/11/29 07:42:38;;;;;;;1999.90;999.90;;;;;;;;;;4971615;28;20085;-78
2023/11/29 07:45:06;;;;;;;1999.90;999.90;;;;;;;;;;4971400;28;20114;-82
2023/11/29 07:47:32;;;;;;;1999.90;999.90;;;;;;;;;;4971181;28;20069;-73
2023/11/29 07:49:58;;;;;;;1999.90;999.90;;;;;;;;;;4971568;28;20033;-74
2023/11/29 07:52:24;;;;;;;1999.90;999.90;;;;;;;;;;4970967;28;20126;-80
2023/11/29 07:54:50;;;;;;;1999.90;999.90;;;;;;;;;;4971863;28;20054;-77
2023/11/29 07:57:17;;;;;;;1999.90;999.90;;;;;;;;;;4971551;28;20031;-71
2023/11/29 07:59:44;;;;;;;1999.90;999.90;;;;;;;;;;4971158;28;20023;-72
2023/11/29 08:02:10;;;;;;;1999.90;999.90;;;;;;;;;;4970405;28;20431;-65
2023/11/29 08:04:36;;;;;;;1999.90;999.90;;;;;;;;;;4971014;28;20019;-79
2023/11/29 08:07:02;;;;;;;1999.90;999.90;;;;;;;;;;4971458;28;20037;-62
2023/11/29 08:09:28;;;;;;;1999.90;999.90;;;;;;;;;;4971207;28;20065;-82
2023/11/29 08:11:54;;;;;;;1999.90;999.90;;;;;;;;;;4970908;28;20031;-75
2023/11/29 08:14:20;;;;;;;1999.90;999.90;;;;;;;;;;4972261;28;20027;-82
2023/11/29 08:16:47;;;;;;;1999.90;999.90;;;;;;;;;;4974507;28;20023;-80
2023/11/29 08:19:13;;;;;;;1999.90;999.90;;;;;;;;;;4974760;28;20023;-69
2023/11/29 08:21:39;;;;;;;1999.90;999.90;;;;;;;;;;4973941;28;20479;-63
2023/11/29 08:24:05;;;;;;;1999.90;999.90;;;;;;;;;;4974187;28;20030;-63
2023/11/29 08:26:31;;;;;;;1999.90;999.90;;;;;;;;;;4974253;28;20034;-69
2023/11/29 08:28:58;;;;;;;1999.90;999.90;;;;;;;;;;4972898;28;20537;-64
2023/11/29 08:31:24;;;;;;;1999.90;999.90;;;;;;;;;;4972352;28;20477;-63
2023/11/29 08:33:50;;;;;;;1999.90;999.90;;;;;;;;;;4973027;28;20027;-71
2023/11/29 08:36:16;;;;;;;1999.90;999.90;;;;;;;;;;4973738;28;20033;-66
2023/11/29 08:38:42;;;;;;;1999.90;999.90;;;;;;;;;;4974289;28;20023;-72
2023/11/29 08:41:08;;;;;;;1999.90;999.90;;;;;;;;;;4973474;28;20030;-65
2023/11/29 08:43:34;;;;;;;1999.90;999.90;;;;;;;;;;4972893;28;20030;-62
2023/11/29 08:46:00;;;;;;;1999.90;999.90;;;;;;;;;;4976466;28;20022;-78
2023/11/29 08:48:27;;;;;;;1999.90;999.90;;;;;;;;;;4972589;28;20053;-66
2023/11/29 08:50:53;;;;;;;1999.90;999.90;;;;;;;;;;4973811;28;20067;-71
2023/11/29 08:53:22;;;;;;;1999.90;999.90;;;;;;;;;;4955949;28;20026;-62
2023/11/29 08:55:48;;;;;;;1999.90;999.90;;;;;;;;;;4972923;28;20386;-70
2023/11/29 08:58:14;;;;;;;1999.90;999.90;;;;;;;;;;4973876;28;20487;-72
2023/11/29 09:00:44;;;;;;;1999.90;999.90;;;;;;;;;;4975650;28;20030;-71
2023/11/29 09:03:10;;;;;;;1999.90;999.90;;;;;;;;;;4973228;28;20043;-75
2023/11/29 09:05:36;;;;;;;1999.90;999.90;;;;;;;;;;4954447;28;20019;-66
2023/11/29 09:08:03;;;;;;;1999.90;999.90;;;;;;;;;;4972406;28;21545;-70
2023/11/29 09:10:29;;;;;;;1999.90;999.90;;;;;;;;;;4971753;28;20066;-69
2023/11/29 09:12:55;;;;;;;1999.90;999.90;;;;;;;;;;4970684;28;20109;-64
2023/11/29 09:15:21;;;;;;;1999.90;999.90;;;;;;;;;;4972237;28;20576;-65
2023/11/29 09:17:54;;;;;;;1999.90;999.90;;;;;;;;;;4971794;28;20027;-64
2023/11/29 09:20:20;;;;;;;1999.90;999.90;;;;;;;;;;4972061;28;20430;-65
2023/11/29 09:22:46;;;;;;;1999.90;999.90;;;;;;;;;;4972035;28;20056;-66
2023/11/29 09:25:12;;;;;;;1999.90;999.90;;;;;;;;;;4971929;28;20479;-64
2023/11/29 09:27:38;;;;;;;1999.90;999.90;;;;;;;;;;4972564;28;20128;-67
2023/11/29 09:30:10;;;;;;;1999.90;999.90;;;;;;;;;;4972614;28;20523;-64
2023/11/29 09:32:36;;;;;;;1999.90;999.90;;;;;;;;;;4952688;28;20030;-64
2023/11/29 09:35:04;;;;;;;1999.90;999.90;;;;;;;;;;4971782;28;20027;-68
2023/11/29 09:37:33;;;;;;;1999.90;999.90;;;;;;;;;;4971071;28;20149;-67
2023/11/29 09:40:00;;;;;;;1999.90;999.90;;;;;;;;;;4971492;28;20019;-71
2023/11/29 09:42:28;;;;;;;1999.90;999.90;;;;;;;;;;4955640;28;20054;-64
2023/11/29 09:44:55;;;;;;;1999.90;999.90;;;;;;;;;;4972071;28;20107;-63
2023/11/29 09:47:23;;;;;;;1999.90;999.90;;;;;;;;;;4975467;28;20041;-75
2023/11/29 09:49:51;;;;;;;1999.90;999.90;;;;;;;;;;4972046;28;20027;-78
2023/11/29 09:52:18;;;;;;;1999.90;999.90;;;;;;;;;;4971949;28;20712;-72
2023/11/29 09:54:44;;;;;;;1999.90;999.90;;;;;;;;;;4972105;28;20407;-77
2023/11/29 09:57:12;;;;;;;1999.90;999.90;;;;;;;;;;4954352;28;20045;-64
2023/11/29 09:59:38;;;;;;;1999.90;999.90;;;;;;;;;;4953337;29;20019;-67
2023/11/29 10:02:07;;;;;;;1999.90;999.90;;;;;;;;;;4955897;28;20038;-64
2023/11/29 10:04:40;;;;;;;1999.90;999.90;;;;;;;;;;4971845;28;20118;-67
2023/11/29 10:07:06;;;;;;;1999.90;999.90;;;;;;;;;;4965630;28;20035;-67
2023/11/29 10:09:37;;;;;;;1999.90;999.90;;;;;;;;;;4964213;28;20405;-73
2023/11/29 10:12:04;;;;;;;1999.90;999.90;;;;;;;;;;4966620;28;20031;-74
2023/11/29 10:14:30;;;;;;;1999.90;999.90;;;;;;;;;;4966272;28;20015;-63
2023/11/29 10:16:56;;;;;;;1999.90;999.90;;;;;;;;;;4968256;28;20030;-75
2023/11/29 10:19:23;;;;;;;1999.90;999.90;;;;;;;;;;4965488;28;20047;-74
2023/11/29 10:21:52;;;;;;;1999.90;999.90;;;;;;;;;;4965910;28;20102;-69
2023/11/29 10:24:24;;;;;;;1999.90;999.90;;;;;;;;;;4964734;28;20053;-66
2023/11/29 10:26:51;;;;;;;1999.90;999.90;;;;;;;;;;4966165;28;20038;-63
2023/11/29 10:29:17;;;;;;;1999.90;999.90;;;;;;;;;;4968205;28;20109;-67
2023/11/29 10:31:43;;;;;;;1999.90;999.90;;;;;;;;;;4967754;28;20074;-66
2023/11/29 10:34:11;;;;;;;1999.90;999.90;;;;;;;;;;4944914;29;20049;-65
2023/11/29 10:36:39;;;;;;;1999.90;999.90;;;;;;;;;;4959401;28;20466;-68
2023/11/29 10:39:09;;;;;;;1999.90;999.90;;;;;;;;;;4967201;28;20121;-68
2023/11/29 10:41:38;;;;;;;1999.90;999.90;;;;;;;;;;4968668;28;20066;-62
2023/11/29 10:44:05;;;;;;;1999.90;999.90;;;;;;;;;;4971601;28;20491;-62
2023/11/29 10:46:34;;;;;;;1999.90;999.90;;;;;;;;;;4971833;28;20398;-63
2023/11/29 10:49:04;;;;;;;1999.90;999.90;;;;;;;;;;4953274;28;20050;-71
2023/11/29 10:51:31;;;;;;;1999.90;999.90;;;;;;;;;;4971151;28;20039;-63
2023/11/29 10:53:58;;;;;;;1999.90;999.90;;;;;;;;;;4971131;28;20022;-65
2023/11/29 10:56:25;;;;;;;1999.90;999.90;;;;;;;;;;4971772;28;20479;-76
2023/11/29 10:59:05;;;;;;;1999.90;999.90;;;;;;;;;;4971502;28;20027;-70
2023/11/29 11:01:36;;;;;;;1999.90;999.90;;;;;;;;;;4970639;28;20042;-66
2023/11/29 11:04:08;;;;;;;1999.90;999.90;;;;;;;;;;4971209;28;20215;-75
2023/11/29 11:06:35;;;;;;;1999.90;999.90;;;;;;;;;;4967943;28;20035;-76
2023/11/29 11:09:02;;;;;;;1999.90;999.90;;;;;;;;;;4971796;28;20042;-78
2023/11/29 11:11:40;;;;;;;1999.90;999.90;;;;;;;;;;4971087;28;20152;-71
2023/11/29 11:14:15;;;;;;;1999.90;999.90;;;;;;;;;;4971992;28;20046;-73
2023/11/29 11:16:55;;;;;;;1999.90;999.90;;;;;;;;;;4971471;28;20495;-72
2023/11/29 11:19:31;;;;;;;1999.90;999.90;;;;;;;;;;4970938;28;20042;-72
2023/11/29 11:21:57;;;;;;;1999.90;999.90;;;;;;;;;;4969457;28;20030;-70
2023/11/29 11:24:42;;;;;;;1999.90;999.90;;;;;;;;;;4970309;28;20132;-70
2023/11/29 11:27:08;;;;;;;1999.90;999.90;;;;;;;;;;4970462;28;20478;-71
2023/11/29 11:29:35;;;;;;;1999.90;999.90;;;;;;;;;;4970990;28;20027;-70
2023/11/29 11:32:01;;;;;;;1999.90;999.90;;;;;;;;;;4971351;28;20055;-70
2023/11/29 11:34:27;;;;;;;1999.90;999.90;;;;;;;;;;4970826;28;20046;-68
2023/11/29 11:36:55;;;;;;;1999.90;999.90;;;;;;;;;;4971135;28;20471;-68
2023/11/29 11:39:23;;;;;;;1999.90;999.90;;;;;;;;;;4970644;28;20035;-67
2023/11/29 11:41:50;;;;;;;1999.90;999.90;;;;;;;;;;4970430;28;20030;-70
2023/11/29 11:44:16;;;;;;;1999.90;999.90;;;;;;;;;;4971166;28;20097;-66
2023/11/29 11:46:42;;;;;;;1999.90;999.90;;;;;;;;;;4970766;28;20034;-67
2023/11/29 11:49:08;;;;;;;1999.90;999.90;;;;;;;;;;4971028;28;20048;-69
2023/11/29 11:51:34;;;;;;;1999.90;999.90;;;;;;;;;;4974615;28;20046;-70
2023/11/29 11:54:01;;;;;;;1999.90;999.90;;;;;;;;;;4974291;28;20023;-67
2023/11/29 11:56:27;;;;;;;1999.90;999.90;;;;;;;;;;4974416;28;20122;-66
2023/11/29 11:58:56;;;;;;;1999.90;999.90;;;;;;;;;;4973765;28;20463;-66
2023/11/29 12:01:22;;;;;;;1999.90;999.90;;;;;;;;;;4980574;28;20502;-66
2023/11/29 12:03:49;;;;;;;1999.90;999.90;;;;;;;;;;4991405;28;20069;-70
2023/11/29 12:06:15;;;;;;;1999.90;999.90;;;;;;;;;;4993718;28;20030;-69
2023/11/29 12:08:41;;;;;;;1999.90;999.90;;;;;;;;;;4994289;28;20019;-68
2023/11/29 12:11:08;;;;;;;1999.90;999.90;;;;;;;;;;4981756;28;20058;-70
2023/11/29 12:13:34;;;;;;;1999.90;999.90;;;;;;;;;;4974403;28;20019;-71
2023/11/29 12:16:02;;;;;;;1999.90;999.90;;;;;;;;;;4974382;28;20464;-69
2023/11/29 12:18:28;;;;;;;1999.90;999.90;;;;;;;;;;4974122;28;20030;-66
2023/11/29 12:20:54;;;;;;;1999.90;999.90;;;;;;;;;;4973478;28;20027;-67
2023/11/29 12:23:28;;;;;;;1999.90;999.90;;;;;;;;;;4974320;28;20027;-64
2023/11/29 12:25:55;;;;;;;1999.90;999.90;;;;;;;;;;4955101;29;20024;-65
2023/11/29 12:28:25;;;;;;;1999.90;999.90;;;;;;;;;;4972347;28;20034;-69
2023/11/29 12:30:58;;;;;;;1999.90;999.90;;;;;;;;;;4972541;28;20038;-65
2023/11/29 12:33:25;;;;;;;1999.90;999.90;;;;;;;;;;4973097;28;20030;-65
2023/11/29 12:35:51;;;;;;;1999.90;999.90;;;;;;;;;;4973106;28;20083;-65
2023/11/29 12:38:19;;;;;;;1999.90;999.90;;;;;;;;;;4973472;28;20027;-66
2023/11/29 12:40:45;;;;;;;1999.90;999.90;;;;;;;;;;4973794;28;20015;-65
2023/11/29 12:43:11;;;;;;;1999.90;999.90;;;;;;;;;;4973379;28;20027;-65
2023/11/29 12:45:37;;;;;;;1999.90;999.90;;;;;;;;;;4973239;28;20102;-66
2023/11/29 12:48:03;;;;;;;1999.90;999.90;;;;;;;;;;4973660;28;20035;-64
2023/11/29 12:50:29;;;;;;;1999.90;999.90;;;;;;;;;;4973695;28;20023;-68
2023/11/29 12:52:56;;;;;;;1999.90;999.90;;;;;;;;;;4973801;28;20486;-65
2023/11/29 12:55:22;;;;;;;1999.90;999.90;;;;;;;;;;4973135;28;20034;-65
2023/11/29 12:57:48;;;;;;;1999.90;999.90;;;;;;;;;;4973280;28;20034;-66
2023/11/29 13:00:14;;;;;;;1999.90;999.90;;;;;;;;;;4971532;28;20055;-65
2023/11/29 13:02:40;;;;;;;1999.90;999.90;;;;;;;;;;4972739;28;20087;-67
2023/11/29 13:05:06;;;;;;;1999.90;999.90;;;;;;;;;;4973214;28;20034;-65
2023/11/29 13:07:32;;;;;;;1999.90;999.90;;;;;;;;;;4973326;28;20053;-64
2023/11/29 13:09:59;;;;;;;1999.90;999.90;;;;;;;;;;4973505;28;20022;-66
2023/11/29 13:12:25;;;;;;;1999.90;999.90;;;;;;;;;;4972996;28;20129;-64
2023/11/29 13:14:51;;;;;;;1999.90;999.90;;;;;;;;;;4972895;28;20027;-65
2023/11/29 13:17:20;;;;;;;1999.90;999.90;;;;;;;;;;4972982;28;20499;-66
2023/11/29 13:19:46;;;;;;;1999.90;999.90;;;;;;;;;;4973321;28;20485;-65
2023/11/29 13:22:13;;;;;;;1999.90;999.90;;;;;;;;;;4972086;28;20430;-66
2023/11/29 13:24:39;;;;;;;1999.90;999.90;;;;;;;;;;4973186;28;20019;-66
2023/11/29 13:27:05;;;;;;;1999.90;999.90;;;;;;;;;;4973138;28;20022;-65
2023/11/29 13:29:32;;;;;;;1999.90;999.90;;;;;;;;;;4972172;28;20453;-66
2023/11/29 13:31:58;;;;;;;1999.90;999.90;;;;;;;;;;4971880;28;20042;-65
2023/11/29 13:34:26;;;;;;;1999.90;999.90;;;;;;;;;;4972040;28;20026;-66
2023/11/29 13:36:52;;;;;;;1999.90;999.90;;;;;;;;;;4971890;28;20042;-67
2023/11/29 13:39:18;;;;;;;1999.90;999.90;;;;;;;;;;4971621;28;20052;-66
2023/11/29 13:41:44;;;;;;;1999.90;999.90;;;;;;;;;;4971217;28;20101;-66
2023/11/29 13:44:10;;;;;;;1999.90;999.90;;;;;;;;;;4972895;28;20049;-66
2023/11/29 13:46:36;;;;;;;1999.90;999.90;;;;;;;;;;4954649;28;20030;-66
2023/11/29 13:49:03;;;;;;;1999.90;999.90;;;;;;;;;;4972645;28;20030;-66
2023/11/29 13:51:30;;;;;;;1999.90;999.90;;;;;;;;;;4972668;28;20035;-66
2023/11/29 13:53:56;;;;;;;1999.90;999.90;;;;;;;;;;4973508;28;20023;-66
2023/11/29 13:56:22;;;;;;;1999.90;999.90;;;;;;;;;;4992569;28;20423;-66
2023/11/29 13:58:48;;;;;;;1999.90;999.90;;;;;;;;;;4992302;28;20105;-67
2023/11/29 14:01:15;;;;;;;1999.90;999.90;;;;;;;;;;4991657;28;20038;-65
2023/11/29 14:03:41;;;;;;;1999.90;999.90;;;;;;;;;;4991776;28;20078;-65
2023/11/29 14:06:09;;;;;;;1999.90;999.90;;;;;;;;;;4991952;28;20109;-66
2023/11/29 14:08:35;;;;;;;1999.90;999.90;;;;;;;;;;4991520;28;20026;-66
2023/11/29 14:11:01;;;;;;;1999.90;999.90;;;;;;;;;;4991595;28;20037;-65
2023/11/29 14:13:29;;;;;;;1999.90;999.90;;;;;;;;;;4990887;28;20435;-65
2023/11/29 14:15:56;;;;;;;1999.90;999.90;;;;;;;;;;4991425;28;20029;-65
2023/11/29 14:18:22;;;;;;;1999.90;999.90;;;;;;;;;;4991360;28;20026;-65
2023/11/29 14:20:49;;;;;;;1999.90;999.90;;;;;;;;;;4977121;28;20030;-66
2023/11/29 14:23:15;;;;;;;1999.90;999.90;;;;;;;;;;4971680;28;20042;-67
2023/11/29 14:25:41;;;;;;;1999.90;999.90;;;;;;;;;;4971606;28;20022;-66
2023/11/29 14:28:07;;;;;;;1999.90;999.90;;;;;;;;;;4971937;28;20035;-66
2023/11/29 14:30:33;;;;;;;1999.90;999.90;;;;;;;;;;4971578;28;20019;-66
2023/11/29 14:32:59;;;;;;;1999.90;999.90;;;;;;;;;;4971512;28;20467;-64
2023/11/29 14:35:25;;;;;;;1999.90;999.90;;;;;;;;;;4971527;28;20023;-67
2023/11/29 14:37:51;;;;;;;1999.90;999.90;;;;;;;;;;4972112;28;20359;-67
2023/11/29 14:40:18;;;;;;;1999.90;999.90;;;;;;;;;;4972216;28;20019;-70
2023/11/29 14:42:46;;;;;;;1999.90;999.90;;;;;;;;;;4976502;28;20018;-67
2023/11/29 14:45:12;;;;;;;1999.90;999.90;;;;;;;;;;4990939;28;20022;-66
2023/11/29 14:47:38;;;;;;;1999.90;999.90;;;;;;;;;;4991085;28;20105;-68
2023/11/29 14:50:04;;;;;;;1999.90;999.90;;;;;;;;;;4990912;28;20028;-69
2023/11/29 14:52:30;;;;;;;1999.90;999.90;;;;;;;;;;4991189;28;20084;-67
2023/11/29 14:54:56;;;;;;;1999.90;999.90;;;;;;;;;;4990836;28;20022;-68
2023/11/29 14:57:23;;;;;;;1999.90;999.90;;;;;;;;;;4991030;28;20429;-66
2023/11/29 14:59:50;;;;;;;1999.90;999.90;;;;;;;;;;4991002;28;20023;-68
2023/11/29 15:02:17;;;;;;;1999.90;999.90;;;;;;;;;;4991106;28;20525;-66
2023/11/29 15:04:43;;;;;;;1999.90;999.90;;;;;;;;;;4989748;28;20522;-68
2023/11/29 15:07:09;;;;;;;1999.90;999.90;;;;;;;;;;4984237;28;20045;-69
2023/11/29 15:09:37;;;;;;;1999.90;999.90;;;;;;;;;;4991189;28;20446;-70
2023/11/29 15:12:04;;;;;;;1999.90;999.90;;;;;;;;;;4991048;28;20073;-68
2023/11/29 15:14:30;;;;;;;1999.90;999.90;;;;;;;;;;4991150;28;20080;-68
2023/11/29 15:16:56;;;;;;;1999.90;999.90;;;;;;;;;;4977838;28;20121;-68
2023/11/29 15:19:23;;;;;;;1999.90;999.90;;;;;;;;;;4987082;28;20477;-68
2023/11/29 15:21:49;;;;;;;1999.90;999.90;;;;;;;;;;4991065;28;20470;-71
2023/11/29 15:24:15;;;;;;;1999.90;999.90;;;;;;;;;;4981546;28;20434;-65
2023/11/29 15:26:42;;;;;;;1999.90;999.90;;;;;;;;;;4975494;28;20034;-71
2023/11/29 15:29:08;;;;;;;1999.90;999.90;;;;;;;;;;4975098;28;20030;-71
2023/11/29 15:31:34;;;;;;;1999.90;999.90;;;;;;;;;;4974919;28;20046;-69
2023/11/29 15:34:00;;;;;;;1999.90;999.90;;;;;;;;;;4975159;28;20054;-70
2023/11/29 15:36:26;;;;;;;1999.90;999.90;;;;;;;;;;4975318;28;20023;-70
2023/11/29 15:38:52;;;;;;;1999.90;999.90;;;;;;;;;;4976435;28;20518;-70
2023/11/29 15:41:18;;;;;;;1999.90;999.90;;;;;;;;;;4974834;28;20055;-69
2023/11/29 15:43:44;;;;;;;1999.90;999.90;;;;;;;;;;4975160;28;20022;-70
2023/11/29 15:46:10;;;;;;;1999.90;999.90;;;;;;;;;;4974629;28;20046;-67
2023/11/29 15:48:37;;;;;;;1999.90;999.90;;;;;;;;;;4974027;28;20479;-68
2023/11/29 15:51:03;;;;;;;1999.90;999.90;;;;;;;;;;4974411;28;20030;-68
2023/11/29 15:53:34;;;;;;;1999.90;999.90;;;;;;;;;;4974733;28;20105;-67
2023/11/29 15:56:02;;;;;;;1999.90;999.90;;;;;;;;;;4974137;28;20491;-70
2023/11/29 15:58:28;;;;;;;1999.90;999.90;;;;;;;;;;4974089;28;20134;-70
2023/11/29 16:00:54;;;;;;;1999.90;999.90;;;;;;;;;;4973458;28;20782;-69
2023/11/29 16:03:20;;;;;;;1999.90;999.90;;;;;;;;;;4970344;28;20098;-70
2023/11/29 16:05:49;;;;;;;1999.90;999.90;;;;;;;;;;4971758;28;20027;-70
2023/11/29 16:08:15;;;;;;;1999.90;999.90;;;;;;;;;;4974598;28;20478;-67
2023/11/29 16:10:41;;;;;;;1999.90;999.90;;;;;;;;;;4974225;28;20035;-69
2023/11/29 16:13:07;;;;;;;1999.90;999.90;;;;;;;;;;4973986;28;20022;-70
2023/11/29 16:15:34;;;;;;;1999.90;999.90;;;;;;;;;;4974369;28;20378;-67
2023/11/29 16:18:00;;;;;;;1999.90;999.90;;;;;;;;;;4974165;28;20026;-69
2023/11/29 16:20:26;;;;;;;1999.90;999.90;;;;;;;;;;4973859;28;20035;-67
2023/11/29 16:22:52;;;;;;;1999.90;999.90;;;;;;;;;;4974022;28;20050;-68
2023/11/29 16:25:18;;;;;;;1999.90;999.90;;;;;;;;;;4974322;28;20030;-69
2023/11/29 16:27:44;;;;;;;1999.90;999.90;;;;;;;;;;4974259;28;20383;-67
2023/11/29 16:30:11;;;;;;;1999.90;999.90;;;;;;;;;;4974151;28;20023;-64
2023/11/29 16:32:37;;;;;;;1999.90;999.90;;;;;;;;;;4972980;28;20081;-69
2023/11/29 16:35:03;;;;;;;1999.90;999.90;;;;;;;;;;4972753;28;20031;-65
2023/11/29 16:37:30;;;;;;;1999.90;999.90;;;;;;;;;;4973749;28;20031;-65
2023/11/29 16:39:56;;;;;;;1999.90;999.90;;;;;;;;;;4973576;28;20023;-67
2023/11/29 16:42:22;;;;;;;1999.90;999.90;;;;;;;;;;4973245;28;20118;-67
2023/11/29 16:44:48;;;;;;;1999.90;999.90;;;;;;;;;;4972671;28;20030;-68
2023/11/29 16:47:14;;;;;;;1999.90;999.90;;;;;;;;;;4973730;28;20406;-65
2023/11/29 16:49:40;;;;;;;1999.90;999.90;;;;;;;;;;4973622;28;20027;-65
2023/11/29 16:52:06;;;;;;;1999.90;999.90;;;;;;;;;;4973215;28;20035;-67
2023/11/29 16:54:32;;;;;;;1999.90;999.90;;;;;;;;;;4972689;28;20101;-68
2023/11/29 16:56:58;;;;;;;1999.90;999.90;;;;;;;;;;4972587;28;20089;-67
2023/11/29 16:59:25;;;;;;;1999.90;999.90;;;;;;;;;;4972464;28;20475;-67
2023/11/29 17:01:51;;;;;;;1999.90;999.90;;;;;;;;;;4972124;28;20117;-67
2023/11/29 17:04:17;;;;;;;1999.90;999.90;;;;;;;;;;4972406;28;20049;-68
2023/11/29 17:06:43;;;;;;;1999.90;999.90;;;;;;;;;;4972166;28;20104;-68
2023/11/29 17:09:09;;;;;;;1999.90;999.90;;;;;;;;;;4969953;28;20379;-68
2023/11/29 17:11:35;;;;;;;1999.90;999.90;;;;;;;;;;4971602;28;20167;-69
2023/11/29 17:14:01;;;;;;;1999.90;999.90;;;;;;;;;;4972992;28;20022;-66
2023/11/29 17:16:27;;;;;;;1999.90;999.90;;;;;;;;;;4971978;28;20129;-67
2023/11/29 17:18:53;;;;;;;1999.90;999.90;;;;;;;;;;4971773;28;20033;-66
2023/11/29 17:21:19;;;;;;;1999.90;999.90;;;;;;;;;;4963453;28;20034;-65
2023/11/29 17:23:45;;;;;;;1999.90;999.90;;;;;;;;;;4972724;28;20370;-65
2023/11/29 17:26:11;;;;;;;1999.90;999.90;;;;;;;;;;4971111;28;20026;-67
2023/11/29 17:28:37;;;;;;;1999.90;999.90;;;;;;;;;;4971764;28;20474;-65
2023/11/29 17:31:04;;;;;;;1999.90;999.90;;;;;;;;;;4971323;28;20483;-66
2023/11/29 17:33:30;;;;;;;1999.90;999.90;;;;;;;;;;4971692;28;20022;-67
2023/11/29 17:35:56;;;;;;;1999.90;999.90;;;;;;;;;;4975824;28;20422;-69
2023/11/29 17:38:22;;;;;;;1999.90;999.90;;;;;;;;;;4972457;28;20094;-69
2023/11/29 17:40:48;;;;;;;1999.90;999.90;;;;;;;;;;4971699;28;20526;-65